Caerleon, United Kingdom
Current Conditions -  °F | °C
As of 5:50 PM on Sunday 21 Dec 2014 (Local Time) from EGGD Reporting Station
Broken Clouds Broken Clouds  
Wind Chill: 50°   Ceiling: 1100
Heat Index: 50°   Visibility: 6mi
Dew Point: 46°   Wind: 18mph
Humidity: 87%   Direction: 240°WSW
Pressure: 30.21"   Gusts: NA
Location:  51.61°N, 2.95°W
Report Text: EGGD 211750Z 24016KT 9999 BKN011 10/08 Q1023
Loading
Personal Weather Stations






























Interactive Weather Map New forecast layout! Learn more

10-Day Weather Forecast

Advertisements
Track Severe Weather on mobile